sensor_id;sensor_type;location;lat;lon;timestamp;pressure;altitude;pressure_sealevel;temperature;humidity
41218;BME280;26950;50.960;7.138;2023-04-26T00:01:01;100878.47;;;8.42;54.87
41218;BME280;26950;50.960;7.138;2023-04-26T00:03:29;100880.13;;;8.19;55.80
41218;BME280;26950;50.960;7.138;2023-04-26T00:05:58;100882.88;;;8.22;56.19
41218;BME280;26950;50.960;7.138;2023-04-26T00:08:28;100883.97;;;8.48;55.28
41218;BME280;26950;50.960;7.138;2023-04-26T00:10:55;100887.03;;;8.58;55.03
41218;BME280;26950;50.960;7.138;2023-04-26T00:13:22;100880.00;;;8.57;55.11
41218;BME280;26950;50.960;7.138;2023-04-26T00:15:48;100878.91;;;8.52;55.19
41218;BME280;26950;50.960;7.138;2023-04-26T00:18:15;100883.78;;;8.43;55.48
41218;BME280;26950;50.960;7.138;2023-04-26T00:20:41;100884.59;;;8.42;55.68
41218;BME280;26950;50.960;7.138;2023-04-26T00:23:08;100879.88;;;8.54;55.60
41218;BME280;26950;50.960;7.138;2023-04-26T00:25:35;100882.31;;;8.50;55.62
41218;BME280;26950;50.960;7.138;2023-04-26T00:28:03;100883.72;;;8.42;55.74
41218;BME280;26950;50.960;7.138;2023-04-26T00:30:29;100879.88;;;8.33;56.09
41218;BME280;26950;50.960;7.138;2023-04-26T00:32:56;100882.81;;;8.41;55.93
41218;BME280;26950;50.960;7.138;2023-04-26T00:35:23;100879.50;;;8.45;55.57
41218;BME280;26950;50.960;7.138;2023-04-26T00:37:49;100874.91;;;8.40;55.89
41218;BME280;26950;50.960;7.138;2023-04-26T00:40:16;100867.06;;;8.40;55.64
41218;BME280;26950;50.960;7.138;2023-04-26T00:42:44;100868.75;;;8.37;55.97
41218;BME280;26950;50.960;7.138;2023-04-26T00:45:12;100864.50;;;8.41;55.79
41218;BME280;26950;50.960;7.138;2023-04-26T00:47:39;100867.69;;;8.34;55.54
41218;BME280;26950;50.960;7.138;2023-04-26T00:50:06;100864.81;;;8.28;55.86
41218;BME280;26950;50.960;7.138;2023-04-26T00:52:34;100866.66;;;8.09;56.36
41218;BME280;26950;50.960;7.138;2023-04-26T00:55:02;100867.81;;;8.16;55.74
41218;BME280;26950;50.960;7.138;2023-04-26T00:57:28;100863.69;;;8.00;56.15
41218;BME280;26950;50.960;7.138;2023-04-26T00:59:55;100869.13;;;7.85;56.57
41218;BME280;26950;50.960;7.138;2023-04-26T01:02:23;100866.03;;;7.73;57.22
41218;BME280;26950;50.960;7.138;2023-04-26T01:04:49;100861.28;;;7.65;57.43
41218;BME280;26950;50.960;7.138;2023-04-26T01:07:16;100865.81;;;7.69;57.38
41218;BME280;26950;50.960;7.138;2023-04-26T01:09:43;100870.22;;;7.70;57.49
41218;BME280;26950;50.960;7.138;2023-04-26T01:12:10;100870.22;;;7.70;57.37
41218;BME280;26950;50.960;7.138;2023-04-26T01:14:38;100876.00;;;7.63;57.42
41218;BME280;26950;50.960;7.138;2023-04-26T01:17:05;100876.69;;;7.58;57.39
41218;BME280;26950;50.960;7.138;2023-04-26T01:19:33;100886.72;;;7.49;57.56
41218;BME280;26950;50.960;7.138;2023-04-26T01:22:01;100886.75;;;7.30;57.99
41218;BME280;26950;50.960;7.138;2023-04-26T01:24:29;100895.91;;;7.22;58.65
41218;BME280;26950;50.960;7.138;2023-04-26T01:26:57;100891.41;;;7.18;58.76
41218;BME280;26950;50.960;7.138;2023-04-26T01:29:24;100886.78;;;7.12;58.97
41218;BME280;26950;50.960;7.138;2023-04-26T01:31:51;100892.75;;;7.10;58.18
41218;BME280;26950;50.960;7.138;2023-04-26T01:34:17;100888.91;;;7.01;57.71
41218;BME280;26950;50.960;7.138;2023-04-26T01:36:44;100886.84;;;6.94;58.34
41218;BME280;26950;50.960;7.138;2023-04-26T01:39:10;100881.78;;;7.17;58.02
41218;BME280;26950;50.960;7.138;2023-04-26T01:41:38;100885.56;;;7.23;57.38
41218;BME280;26950;50.960;7.138;2023-04-26T01:44:04;100887.97;;;7.38;57.12
41218;BME280;26950;50.960;7.138;2023-04-26T01:46:31;100880.34;;;7.23;57.50
41218;BME280;26950;50.960;7.138;2023-04-26T01:48:57;100881.50;;;7.11;57.91
41218;BME280;26950;50.960;7.138;2023-04-26T01:51:24;100883.63;;;7.19;58.18
41218;BME280;26950;50.960;7.138;2023-04-26T01:53:51;100882.88;;;7.41;57.47
41218;BME280;26950;50.960;7.138;2023-04-26T01:56:17;100877.47;;;7.37;57.50
41218;BME280;26950;50.960;7.138;2023-04-26T01:58:45;100883.38;;;7.33;57.70
41218;BME280;26950;50.960;7.138;2023-04-26T02:01:12;100883.31;;;7.31;57.71
41218;BME280;26950;50.960;7.138;2023-04-26T02:03:38;100880.25;;;7.22;57.77
41218;BME280;26950;50.960;7.138;2023-04-26T02:06:05;100877.03;;;7.27;57.85
41218;BME280;26950;50.960;7.138;2023-04-26T02:08:31;100889.06;;;7.43;57.46
41218;BME280;26950;50.960;7.138;2023-04-26T02:10:58;100884.75;;;7.44;57.20
41218;BME280;26950;50.960;7.138;2023-04-26T02:13:24;100869.41;;;7.32;56.95
41218;BME280;26950;50.960;7.138;2023-04-26T02:15:52;100879.19;;;7.36;56.92
41218;BME280;26950;50.960;7.138;2023-04-26T02:18:19;100875.97;;;7.42;56.54
41218;BME280;26950;50.960;7.138;2023-04-26T02:20:46;100878.56;;;7.42;56.54
41218;BME280;26950;50.960;7.138;2023-04-26T02:23:12;100878.91;;;7.30;56.82
41218;BME280;26950;50.960;7.138;2023-04-26T02:25:40;100885.34;;;6.99;57.77
41218;BME280;26950;50.960;7.138;2023-04-26T02:28:07;100878.63;;;7.05;57.26
41218;BME280;26950;50.960;7.138;2023-04-26T02:30:33;100883.34;;;7.13;57.46
41218;BME280;26950;50.960;7.138;2023-04-26T02:33:01;100872.84;;;7.12;57.43
41218;BME280;26950;50.960;7.138;2023-04-26T02:35:27;100876.84;;;7.23;57.06
41218;BME280;26950;50.960;7.138;2023-04-26T02:37:54;100877.63;;;7.02;57.11
41218;BME280;26950;50.960;7.138;2023-04-26T02:40:20;100876.34;;;6.75;58.07
41218;BME280;26950;50.960;7.138;2023-04-26T02:42:47;100868.53;;;6.75;58.38
41218;BME280;26950;50.960;7.138;2023-04-26T02:45:13;100875.84;;;6.64;58.47
41218;BME280;26950;50.960;7.138;2023-04-26T02:47:40;100878.09;;;6.57;58.86
41218;BME280;26950;50.960;7.138;2023-04-26T02:50:08;100863.34;;;6.57;58.90
41218;BME280;26950;50.960;7.138;2023-04-26T02:52:35;100869.72;;;6.64;58.64
41218;BME280;26950;50.960;7.138;2023-04-26T02:55:02;100867.13;;;6.64;58.84
41218;BME280;26950;50.960;7.138;2023-04-26T02:57:28;100874.31;;;6.87;58.33
41218;BME280;26950;50.960;7.138;2023-04-26T02:59:55;100873.63;;;6.91;57.79
41218;BME280;26950;50.960;7.138;2023-04-26T03:02:22;100875.16;;;6.86;58.02
41218;BME280;26950;50.960;7.138;2023-04-26T03:04:48;100870.78;;;6.85;57.96
41218;BME280;26950;50.960;7.138;2023-04-26T03:07:16;100867.59;;;6.73;58.15
41218;BME280;26950;50.960;7.138;2023-04-26T03:09:43;100870.31;;;6.76;57.91
41218;BME280;26950;50.960;7.138;2023-04-26T03:12:10;100874.94;;;6.64;58.00
41218;BME280;26950;50.960;7.138;2023-04-26T03:14:37;100872.50;;;6.49;58.30
41218;BME280;26950;50.960;7.138;2023-04-26T03:17:03;100870.50;;;6.26;59.17
41218;BME280;26950;50.960;7.138;2023-04-26T03:19:30;100868.13;;;6.30;59.11
41218;BME280;26950;50.960;7.138;2023-04-26T03:21:56;100870.72;;;6.30;59.21
41218;BME280;26950;50.960;7.138;2023-04-26T03:24:24;100870.28;;;6.39;58.80
41218;BME280;26950;50.960;7.138;2023-04-26T03:26:51;100863.63;;;6.28;59.02
41218;BME280;26950;50.960;7.138;2023-04-26T03:29:17;100871.31;;;6.07;59.71
41218;BME280;26950;50.960;7.138;2023-04-26T03:31:44;100865.44;;;6.29;59.38
41218;BME280;26950;50.960;7.138;2023-04-26T03:34:10;100862.63;;;6.24;59.20
41218;BME280;26950;50.960;7.138;2023-04-26T03:36:37;100859.25;;;6.27;59.46
41218;BME280;26950;50.960;7.138;2023-04-26T03:39:04;100861.09;;;6.47;58.73
41218;BME280;26950;50.960;7.138;2023-04-26T03:41:32;100859.53;;;6.51;58.49
41218;BME280;26950;50.960;7.138;2023-04-26T03:44:01;100864.22;;;6.40;58.41
41218;BME280;26950;50.960;7.138;2023-04-26T03:46:28;100865.88;;;6.20;59.11
41218;BME280;26950;50.960;7.138;2023-04-26T03:48:55;100864.75;;;6.15;59.22
41218;BME280;26950;50.960;7.138;2023-04-26T03:51:21;100867.03;;;6.09;59.57
41218;BME280;26950;50.960;7.138;2023-04-26T03:53:47;100869.59;;;6.25;58.92
41218;BME280;26950;50.960;7.138;2023-04-26T03:56:15;100860.06;;;6.26;58.69
41218;BME280;26950;50.960;7.138;2023-04-26T03:58:43;100861.91;;;6.28;58.53
41218;BME280;26950;50.960;7.138;2023-04-26T04:01:09;100867.81;;;6.24;58.40
41218;BME280;26950;50.960;7.138;2023-04-26T04:03:36;100860.72;;;6.21;58.52
41218;BME280;26950;50.960;7.138;2023-04-26T04:06:02;100866.81;;;6.22;58.58
41218;BME280;26950;50.960;7.138;2023-04-26T04:08:29;100865.56;;;6.14;58.33
41218;BME280;26950;50.960;7.138;2023-04-26T04:10:56;100871.22;;;5.89;58.99
41218;BME280;26950;50.960;7.138;2023-04-26T04:13:22;100877.53;;;5.76;59.51
41218;BME280;26950;50.960;7.138;2023-04-26T04:15:50;100879.16;;;5.74;59.87
41218;BME280;26950;50.960;7.138;2023-04-26T04:18:16;100882.41;;;5.86;59.72
41218;BME280;26950;50.960;7.138;2023-04-26T04:20:43;100877.34;;;5.89;59.58
41218;BME280;26950;50.960;7.138;2023-04-26T04:23:10;100869.53;;;5.89;59.55
41218;BME280;26950;50.960;7.138;2023-04-26T04:25:36;100877.03;;;5.83;59.62
41218;BME280;26950;50.960;7.138;2023-04-26T04:28:03;100870.03;;;5.82;59.90
41218;BME280;26950;50.960;7.138;2023-04-26T04:30:29;100877.28;;;5.72;60.38
41218;BME280;26950;50.960;7.138;2023-04-26T04:32:57;100876.50;;;5.73;60.83
41218;BME280;26950;50.960;7.138;2023-04-26T04:35:24;100883.72;;;5.94;60.51
41218;BME280;26950;50.960;7.138;2023-04-26T04:37:53;100887.38;;;6.16;59.52
41218;BME280;26950;50.960;7.138;2023-04-26T04:40:20;100897.13;;;6.20;59.41
41218;BME280;26950;50.960;7.138;2023-04-26T04:42:47;100894.53;;;6.20;59.43
41218;BME280;26950;50.960;7.138;2023-04-26T04:45:14;100892.72;;;6.35;58.68
41218;BME280;26950;50.960;7.138;2023-04-26T04:47:41;100887.09;;;6.45;58.50
41218;BME280;26950;50.960;7.138;2023-04-26T04:50:09;100895.09;;;6.48;58.49
41218;BME280;26950;50.960;7.138;2023-04-26T04:52:36;100902.38;;;6.56;58.22
41218;BME280;26950;50.960;7.138;2023-04-26T04:55:03;100901.50;;;6.55;58.39
41218;BME280;26950;50.960;7.138;2023-04-26T04:57:29;100902.91;;;6.66;58.05
41218;BME280;26950;50.960;7.138;2023-04-26T04:59:56;100901.84;;;6.63;58.28
41218;BME280;26950;50.960;7.138;2023-04-26T05:02:23;100902.16;;;6.69;58.23
41218;BME280;26950;50.960;7.138;2023-04-26T05:04:50;100904.97;;;6.73;58.44
41218;BME280;26950;50.960;7.138;2023-04-26T05:07:18;100899.00;;;6.76;58.12
41218;BME280;26950;50.960;7.138;2023-04-26T05:09:44;100905.34;;;6.81;58.23
41218;BME280;26950;50.960;7.138;2023-04-26T05:12:11;100896.22;;;6.91;58.11
41218;BME280;26950;50.960;7.138;2023-04-26T05:14:37;100915.00;;;7.01;57.52
41218;BME280;26950;50.960;7.138;2023-04-26T05:17:05;100910.34;;;7.14;57.04
41218;BME280;26950;50.960;7.138;2023-04-26T05:19:31;100911.56;;;7.22;57.18
41218;BME280;26950;50.960;7.138;2023-04-26T05:21:58;100917.63;;;7.21;57.67
41218;BME280;26950;50.960;7.138;2023-04-26T05:24:28;100919.69;;;7.28;57.54
41218;BME280;26950;50.960;7.138;2023-04-26T05:26:56;100916.97;;;7.44;56.88
41218;BME280;26950;50.960;7.138;2023-04-26T05:29:23;100915.78;;;7.38;57.26
41218;BME280;26950;50.960;7.138;2023-04-26T05:31:50;100923.28;;;7.49;57.21
41218;BME280;26950;50.960;7.138;2023-04-26T05:34:16;100925.63;;;7.63;56.90
41218;BME280;26950;50.960;7.138;2023-04-26T05:36:43;100929.41;;;7.69;56.76
41218;BME280;26950;50.960;7.138;2023-04-26T05:39:09;100931.94;;;7.68;57.12
41218;BME280;26950;50.960;7.138;2023-04-26T05:41:37;100927.53;;;7.67;57.67
41218;BME280;26950;50.960;7.138;2023-04-26T05:44:04;100922.16;;;7.83;57.46
41218;BME280;26950;50.960;7.138;2023-04-26T05:46:30;100933.97;;;7.94;57.51
41218;BME280;26950;50.960;7.138;2023-04-26T05:48:57;100928.56;;;8.10;57.05
41218;BME280;26950;50.960;7.138;2023-04-26T05:51:24;100937.66;;;8.19;57.39
41218;BME280;26950;50.960;7.138;2023-04-26T05:53:50;100937.50;;;8.16;57.68
41218;BME280;26950;50.960;7.138;2023-04-26T05:56:17;100944.41;;;8.14;57.67
41218;BME280;26950;50.960;7.138;2023-04-26T05:58:45;100941.00;;;8.16;57.82
41218;BME280;26950;50.960;7.138;2023-04-26T06:01:11;100947.88;;;7.93;57.50
41218;BME280;26950;50.960;7.138;2023-04-26T06:03:39;100947.00;;;7.93;58.48
41218;BME280;26950;50.960;7.138;2023-04-26T06:06:05;100939.53;;;8.23;57.98
41218;BME280;26950;50.960;7.138;2023-04-26T06:08:33;100940.50;;;8.44;56.66
41218;BME280;26950;50.960;7.138;2023-04-26T06:10:59;100938.94;;;8.70;56.48
41218;BME280;26950;50.960;7.138;2023-04-26T06:13:26;100935.53;;;8.94;56.16
41218;BME280;26950;50.960;7.138;2023-04-26T06:15:53;100943.91;;;9.07;55.78
41218;BME280;26950;50.960;7.138;2023-04-26T06:18:20;100937.00;;;9.09;55.16
41218;BME280;26950;50.960;7.138;2023-04-26T06:20:46;100939.78;;;9.36;54.28
41218;BME280;26950;50.960;7.138;2023-04-26T06:23:13;100946.41;;;9.49;54.42
41218;BME280;26950;50.960;7.138;2023-04-26T06:25:39;100946.59;;;9.55;54.01
41218;BME280;26950;50.960;7.138;2023-04-26T06:28:08;100950.88;;;9.76;53.27
41218;BME280;26950;50.960;7.138;2023-04-26T06:30:35;100954.66;;;9.84;53.08
41218;BME280;26950;50.960;7.138;2023-04-26T06:33:03;100952.03;;;9.84;53.51
41218;BME280;26950;50.960;7.138;2023-04-26T06:35:29;100960.78;;;9.84;53.91
41218;BME280;26950;50.960;7.138;2023-04-26T06:37:56;100951.41;;;9.91;53.73
41218;BME280;26950;50.960;7.138;2023-04-26T06:40:22;100955.97;;;9.72;53.52
41218;BME280;26950;50.960;7.138;2023-04-26T06:42:49;100957.22;;;10.06;53.28
41218;BME280;26950;50.960;7.138;2023-04-26T06:45:15;100959.97;;;10.35;52.33
41218;BME280;26950;50.960;7.138;2023-04-26T06:47:43;100957.63;;;10.69;52.27
41218;BME280;26950;50.960;7.138;2023-04-26T06:50:11;100946.44;;;11.02;51.59
41218;BME280;26950;50.960;7.138;2023-04-26T06:52:37;100946.94;;;11.19;50.97
41218;BME280;26950;50.960;7.138;2023-04-26T06:55:05;100953.09;;;11.19;50.10
41218;BME280;26950;50.960;7.138;2023-04-26T06:57:31;100956.25;;;11.38;49.21
41218;BME280;26950;50.960;7.138;2023-04-26T06:59:58;100952.38;;;11.25;49.24
41218;BME280;26950;50.960;7.138;2023-04-26T07:02:24;100952.59;;;11.62;48.77
41218;BME280;26950;50.960;7.138;2023-04-26T07:04:51;100949.50;;;11.76;48.11
41218;BME280;26950;50.960;7.138;2023-04-26T07:07:19;100945.34;;;12.14;47.57
41218;BME280;26950;50.960;7.138;2023-04-26T07:09:45;100935.38;;;12.72;47.18
41218;BME280;26950;50.960;7.138;2023-04-26T07:12:12;100940.66;;;13.09;45.83
41218;BME280;26950;50.960;7.138;2023-04-26T07:14:39;100943.22;;;13.44;44.91
41218;BME280;26950;50.960;7.138;2023-04-26T07:17:07;100938.63;;;13.35;44.79
41218;BME280;26950;50.960;7.138;2023-04-26T07:19:34;100936.88;;;13.34;44.76
41218;BME280;26950;50.960;7.138;2023-04-26T07:22:00;100932.66;;;13.44;44.22
41218;BME280;26950;50.960;7.138;2023-04-26T07:24:28;100935.47;;;13.52;44.21
41218;BME280;26950;50.960;7.138;2023-04-26T07:26:55;100946.16;;;13.58;43.53
41218;BME280;26950;50.960;7.138;2023-04-26T07:29:22;100941.66;;;13.54;43.65
41218;BME280;26950;50.960;7.138;2023-04-26T07:31:48;100939.19;;;13.61;43.48
41218;BME280;26950;50.960;7.138;2023-04-26T07:34:14;100934.63;;;13.53;43.87
41218;BME280;26950;50.960;7.138;2023-04-26T07:36:41;100942.19;;;13.37;43.31
41218;BME280;26950;50.960;7.138;2023-04-26T07:39:07;100936.63;;;13.64;42.55
41218;BME280;26950;50.960;7.138;2023-04-26T07:41:36;100925.63;;;13.87;42.15
41218;BME280;26950;50.960;7.138;2023-04-26T07:44:03;100932.50;;;13.77;42.17
41218;BME280;26950;50.960;7.138;2023-04-26T07:46:29;100929.59;;;13.65;42.18
41218;BME280;26950;50.960;7.138;2023-04-26T07:48:57;100939.59;;;13.39;43.19
41218;BME280;26950;50.960;7.138;2023-04-26T07:51:24;100934.00;;;13.25;42.94
41218;BME280;26950;50.960;7.138;2023-04-26T07:53:51;100937.16;;;13.10;43.39
41218;BME280;26950;50.960;7.138;2023-04-26T07:56:19;100928.38;;;13.10;43.04
41218;BME280;26950;50.960;7.138;2023-04-26T07:58:49;100934.97;;;12.91;42.69
41218;BME280;26950;50.960;7.138;2023-04-26T08:01:16;100939.97;;;13.18;42.19
41218;BME280;26950;50.960;7.138;2023-04-26T08:03:42;100938.78;;;13.43;42.18
41218;BME280;26950;50.960;7.138;2023-04-26T08:06:09;100940.66;;;13.47;41.71
41218;BME280;26950;50.960;7.138;2023-04-26T08:08:36;100941.59;;;13.50;41.26
41218;BME280;26950;50.960;7.138;2023-04-26T08:11:07;100942.88;;;13.27;40.51
41218;BME280;26950;50.960;7.138;2023-04-26T08:13:34;100934.03;;;13.67;41.01
41218;BME280;26950;50.960;7.138;2023-04-26T08:16:02;100941.34;;;13.81;40.38
41218;BME280;26950;50.960;7.138;2023-04-26T08:18:28;100936.78;;;13.72;40.28
41218;BME280;26950;50.960;7.138;2023-04-26T08:20:54;100927.69;;;13.58;39.58
41218;BME280;26950;50.960;7.138;2023-04-26T08:23:21;100924.69;;;13.83;39.90
41218;BME280;26950;50.960;7.138;2023-04-26T08:25:47;100935.75;;;14.11;39.39
41218;BME280;26950;50.960;7.138;2023-04-26T08:28:14;100936.00;;;14.24;38.92
41218;BME280;26950;50.960;7.138;2023-04-26T08:30:41;100938.75;;;14.30;39.16
41218;BME280;26950;50.960;7.138;2023-04-26T08:33:09;100935.44;;;13.94;39.14
41218;BME280;26950;50.960;7.138;2023-04-26T08:35:35;100936.66;;;13.66;39.32
41218;BME280;26950;50.960;7.138;2023-04-26T08:38:02;100933.75;;;13.54;39.29
41218;BME280;26950;50.960;7.138;2023-04-26T08:40:28;100932.41;;;13.32;39.54
41218;BME280;26950;50.960;7.138;2023-04-26T08:42:55;100936.66;;;13.67;38.84
41218;BME280;26950;50.960;7.138;2023-04-26T08:45:23;100932.88;;;13.98;37.48
41218;BME280;26950;50.960;7.138;2023-04-26T08:47:51;100931.50;;;14.67;37.53
41218;BME280;26950;50.960;7.138;2023-04-26T08:50:22;100931.69;;;14.78;36.78
41218;BME280;26950;50.960;7.138;2023-04-26T08:52:50;100930.50;;;15.17;36.52
41218;BME280;26950;50.960;7.138;2023-04-26T08:55:18;100927.31;;;14.81;35.95
41218;BME280;26950;50.960;7.138;2023-04-26T08:57:46;100918.16;;;14.60;36.95
41218;BME280;26950;50.960;7.138;2023-04-26T09:00:14;100923.38;;;14.56;37.79
41218;BME280;26950;50.960;7.138;2023-04-26T09:02:43;100928.31;;;14.38;37.85
41218;BME280;26950;50.960;7.138;2023-04-26T09:05:11;100935.28;;;13.86;38.25
41218;BME280;26950;50.960;7.138;2023-04-26T09:07:41;100935.91;;;13.32;38.32
41218;BME280;26950;50.960;7.138;2023-04-26T09:10:09;100924.75;;;13.88;37.90
41218;BME280;26950;50.960;7.138;2023-04-26T09:12:36;100920.09;;;13.74;37.27
41218;BME280;26950;50.960;7.138;2023-04-26T09:15:03;100926.38;;;13.80;37.85
41218;BME280;26950;50.960;7.138;2023-04-26T09:17:32;100930.75;;;13.79;38.18
41218;BME280;26950;50.960;7.138;2023-04-26T09:20:09;100934.81;;;13.63;37.98
41218;BME280;26950;50.960;7.138;2023-04-26T09:22:43;100934.50;;;13.48;38.18
41218;BME280;26950;50.960;7.138;2023-04-26T09:25:12;100931.28;;;13.63;38.31
41218;BME280;26950;50.960;7.138;2023-04-26T09:27:40;100933.63;;;13.91;37.88
41218;BME280;26950;50.960;7.138;2023-04-26T09:30:09;100935.00;;;14.18;36.79
41218;BME280;26950;50.960;7.138;2023-04-26T09:32:44;100931.50;;;13.72;35.75
41218;BME280;26950;50.960;7.138;2023-04-26T09:35:20;100917.63;;;14.29;34.59
41218;BME280;26950;50.960;7.138;2023-04-26T09:37:55;100929.22;;;14.39;35.67
41218;BME280;26950;50.960;7.138;2023-04-26T09:40:25;100915.97;;;13.43;36.23
41218;BME280;26950;50.960;7.138;2023-04-26T09:42:59;100921.94;;;13.77;37.02
41218;BME280;26950;50.960;7.138;2023-04-26T09:45:26;100919.47;;;12.67;37.17
41218;BME280;26950;50.960;7.138;2023-04-26T09:47:53;100914.66;;;12.87;36.90
41218;BME280;26950;50.960;7.138;2023-04-26T09:50:27;100909.56;;;13.76;37.34
41218;BME280;26950;50.960;7.138;2023-04-26T09:52:56;100911.69;;;14.44;34.43
41218;BME280;26950;50.960;7.138;2023-04-26T09:55:27;100906.00;;;15.31;33.31
41218;BME280;26950;50.960;7.138;2023-04-26T09:57:54;100902.34;;;14.63;32.24
41218;BME280;26950;50.960;7.138;2023-04-26T10:00:21;100902.53;;;14.73;32.97
41218;BME280;26950;50.960;7.138;2023-04-26T10:02:51;100895.88;;;14.98;33.22
41218;BME280;26950;50.960;7.138;2023-04-26T10:05:18;100900.25;;;14.98;33.80
41218;BME280;26950;50.960;7.138;2023-04-26T10:07:45;100893.72;;;14.73;34.73
41218;BME280;26950;50.960;7.138;2023-04-26T10:10:13;100895.00;;;14.99;34.33
41218;BME280;26950;50.960;7.138;2023-04-26T10:12:40;100888.34;;;15.27;33.45
41218;BME280;26950;50.960;7.138;2023-04-26T10:15:08;100890.13;;;15.28;33.31
41218;BME280;26950;50.960;7.138;2023-04-26T10:17:35;100893.25;;;15.01;33.71
41218;BME280;26950;50.960;7.138;2023-04-26T10:20:03;100890.22;;;14.74;33.80
41218;BME280;26950;50.960;7.138;2023-04-26T10:22:36;100884.03;;;14.72;34.32
41218;BME280;26950;50.960;7.138;2023-04-26T10:25:07;100888.97;;;14.50;33.42
41218;BME280;26950;50.960;7.138;2023-04-26T10:27:48;100893.06;;;14.33;34.44
41218;BME280;26950;50.960;7.138;2023-04-26T10:30:16;100890.28;;;13.77;34.02
41218;BME280;26950;50.960;7.138;2023-04-26T10:33:12;100890.78;;;14.03;33.06
41218;BME280;26950;50.960;7.138;2023-04-26T10:36:04;100881.22;;;14.10;32.27
41218;BME280;26950;50.960;7.138;2023-04-26T10:38:31;100876.78;;;14.09;32.66
41218;BME280;26950;50.960;7.138;2023-04-26T10:41:27;100881.19;;;14.60;32.10
41218;BME280;26950;50.960;7.138;2023-04-26T10:43:56;100879.75;;;14.80;32.69
41218;BME280;26950;50.960;7.138;2023-04-26T10:46:35;100866.81;;;15.70;31.40
41218;BME280;26950;50.960;7.138;2023-04-26T10:49:15;100865.03;;;16.63;29.89
41218;BME280;26950;50.960;7.138;2023-04-26T10:52:09;100866.75;;;15.62;31.50
41218;BME280;26950;50.960;7.138;2023-04-26T10:54:49;100866.53;;;16.30;30.85
41218;BME280;26950;50.960;7.138;2023-04-26T10:57:16;100861.00;;;17.24;29.57
41218;BME280;26950;50.960;7.138;2023-04-26T11:00:18;100860.75;;;16.82;29.29
41218;BME280;26950;50.960;7.138;2023-04-26T11:02:52;100868.75;;;16.86;29.86
41218;BME280;26950;50.960;7.138;2023-04-26T11:05:40;100869.28;;;15.56;31.39
41218;BME280;26950;50.960;7.138;2023-04-26T11:08:14;100866.13;;;15.87;30.85
41218;BME280;26950;50.960;7.138;2023-04-26T11:10:41;100866.53;;;16.30;31.19
41218;BME280;26950;50.960;7.138;2023-04-26T11:13:08;100869.97;;;16.20;31.06
41218;BME280;26950;50.960;7.138;2023-04-26T11:15:36;100870.97;;;15.48;31.88
41218;BME280;26950;50.960;7.138;2023-04-26T11:18:03;100865.03;;;15.66;32.16
41218;BME280;26950;50.960;7.138;2023-04-26T11:20:30;100859.59;;;15.56;31.95
41218;BME280;26950;50.960;7.138;2023-04-26T11:22:57;100860.59;;;15.64;31.14
41218;BME280;26950;50.960;7.138;2023-04-26T11:25:24;100852.00;;;15.85;30.93
41218;BME280;26950;50.960;7.138;2023-04-26T11:27:56;100840.72;;;16.06;30.26
41218;BME280;26950;50.960;7.138;2023-04-26T11:30:23;100845.19;;;16.10;29.04
41218;BME280;26950;50.960;7.138;2023-04-26T11:32:50;100839.88;;;16.10;28.42
41218;BME280;26950;50.960;7.138;2023-04-26T11:35:17;100848.34;;;15.74;29.30
41218;BME280;26950;50.960;7.138;2023-04-26T11:37:44;100845.78;;;15.83;30.45
41218;BME280;26950;50.960;7.138;2023-04-26T11:40:11;100840.78;;;16.09;30.28
41218;BME280;26950;50.960;7.138;2023-04-26T11:42:38;100824.78;;;15.99;30.95
41218;BME280;26950;50.960;7.138;2023-04-26T11:45:07;100838.72;;;15.84;31.09
41218;BME280;26950;50.960;7.138;2023-04-26T11:47:34;100836.31;;;16.07;31.37
41218;BME280;26950;50.960;7.138;2023-04-26T11:50:02;100839.72;;;15.92;30.93
41218;BME280;26950;50.960;7.138;2023-04-26T11:52:29;100837.06;;;15.92;30.91
41218;BME280;26950;50.960;7.138;2023-04-26T11:55:03;100834.44;;;15.95;31.70
41218;BME280;26950;50.960;7.138;2023-04-26T11:57:30;100837.97;;;15.96;31.70
41218;BME280;26950;50.960;7.138;2023-04-26T12:00:06;100832.66;;;15.91;31.21
41218;BME280;26950;50.960;7.138;2023-04-26T12:02:35;100832.63;;;15.89;31.37
41218;BME280;26950;50.960;7.138;2023-04-26T12:05:06;100834.50;;;16.00;31.39
41218;BME280;26950;50.960;7.138;2023-04-26T12:07:36;100837.16;;;16.01;31.53
41218;BME280;26950;50.960;7.138;2023-04-26T12:10:15;100824.66;;;15.86;29.93
41218;BME280;26950;50.960;7.138;2023-04-26T12:12:43;100830.19;;;16.12;30.67
41218;BME280;26950;50.960;7.138;2023-04-26T12:15:10;100828.44;;;16.14;29.97
41218;BME280;26950;50.960;7.138;2023-04-26T12:17:37;100829.94;;;15.85;30.42
41218;BME280;26950;50.960;7.138;2023-04-26T12:20:09;100834.38;;;15.86;29.45
41218;BME280;26950;50.960;7.138;2023-04-26T12:22:37;100836.44;;;16.19;30.39
41218;BME280;26950;50.960;7.138;2023-04-26T12:25:04;100830.41;;;16.37;30.54
41218;BME280;26950;50.960;7.138;2023-04-26T12:27:32;100840.16;;;16.44;30.49
41218;BME280;26950;50.960;7.138;2023-04-26T12:29:59;100836.69;;;16.53;30.44
41218;BME280;26950;50.960;7.138;2023-04-26T12:32:26;100831.31;;;16.43;29.86
41218;BME280;26950;50.960;7.138;2023-04-26T12:34:52;100842.53;;;15.30;31.13
41218;BME280;26950;50.960;7.138;2023-04-26T12:37:20;100843.06;;;15.74;29.80
41218;BME280;26950;50.960;7.138;2023-04-26T12:39:46;100833.41;;;15.78;29.84
41218;BME280;26950;50.960;7.138;2023-04-26T12:42:13;100836.09;;;15.84;31.02
41218;BME280;26950;50.960;7.138;2023-04-26T12:44:39;100840.63;;;15.94;30.95
41218;BME280;26950;50.960;7.138;2023-04-26T12:47:06;100834.44;;;15.95;30.71
41218;BME280;26950;50.960;7.138;2023-04-26T12:49:32;100827.44;;;16.02;31.34
41218;BME280;26950;50.960;7.138;2023-04-26T12:51:59;100829.13;;;15.92;30.84
41218;BME280;26950;50.960;7.138;2023-04-26T12:54:26;100827.53;;;16.12;30.90
41218;BME280;26950;50.960;7.138;2023-04-26T12:56:53;100826.63;;;16.09;30.69
41218;BME280;26950;50.960;7.138;2023-04-26T12:59:20;100832.78;;;16.06;31.43